ENFB/FBU METAR and TAF weather

Enter ICAO airport designator
Station Type Date Time Source
ENFB METAR 2019/12/11 15:20 UTC NOAA

ENFB 111520Z AUTO 20056KT 9999NDV BKN033/// 07/00 Q0976 W///S7


Station Type Date Time Source
ENFB Decoded METAR 2019/12/11 15:20 UTC NOAA

Oslo / Fornebu, Norway (ENFB) 59-54N 010-38E 17M
Dec 11, 2019 - 10:20 AM EST / 2019.12.11 1520 UTC
Wind: from the SSW (200 degrees) at 64 MPH (56 KT):1
Sky conditions: mostly cloudy
Temperature: 44 F (7 C)
Dew Point: 32 F (0 C)
Relative Humidity: 60%
Pressure (altimeter): 28.82 in. Hg (0976 hPa)
ob: ENFB 111520Z AUTO 20056KT 9999NDV BKN033/// 07/00 Q0976 W///S7
cycle: 15

Station Type Date Time Source
ENFB TAF UTC NOAA

Error!

Example: see airport list